createdAt,value
2022-10-05T00:00:31.978Z,19.33
2022-10-05T00:01:32.039Z,19.33
2022-10-05T00:02:31.966Z,19.37
2022-10-05T00:03:31.970Z,19.41
2022-10-05T00:04:31.970Z,19.39
2022-10-05T00:05:32.059Z,19.32
2022-10-05T00:06:31.976Z,19.37
2022-10-05T00:07:31.949Z,19.39
2022-10-05T00:08:31.955Z,19.33
2022-10-05T00:09:32.001Z,19.37
2022-10-05T00:10:31.969Z,19.37
2022-10-05T00:11:31.945Z,19.40
2022-10-05T00:12:31.948Z,19.39
2022-10-05T00:13:31.937Z,19.36
2022-10-05T00:14:31.943Z,19.39
2022-10-05T00:15:31.939Z,19.39
2022-10-05T00:16:32.051Z,19.37
2022-10-05T00:17:31.925Z,19.32
2022-10-05T00:18:31.930Z,19.33
2022-10-05T00:19:31.923Z,19.37
2022-10-05T00:20:31.933Z,19.43
2022-10-05T00:21:31.924Z,19.31
2022-10-05T00:22:31.919Z,19.39
2022-10-05T00:23:31.910Z,19.32
2022-10-05T00:24:31.923Z,19.36
2022-10-05T00:25:31.904Z,19.28
2022-10-05T00:26:31.934Z,19.28
2022-10-05T00:27:31.904Z,19.31
2022-10-05T00:28:31.933Z,19.36
2022-10-05T00:29:31.898Z,19.28
2022-10-05T00:30:31.907Z,19.37
2022-10-05T00:31:31.959Z,19.32
2022-10-05T00:32:31.902Z,19.39
2022-10-05T00:33:31.889Z,19.32
2022-10-05T00:34:31.898Z,19.29
2022-10-05T00:35:31.907Z,19.33
2022-10-05T00:36:31.895Z,19.33
2022-10-05T00:37:31.894Z,19.36
2022-10-05T00:38:31.876Z,19.37
2022-10-05T00:39:31.876Z,19.32
2022-10-05T00:40:31.880Z,19.32
2022-10-05T00:41:31.884Z,19.32
2022-10-05T00:42:31.910Z,19.32
2022-10-05T00:43:31.872Z,19.32
2022-10-05T00:44:31.868Z,19.39
2022-10-05T00:45:31.928Z,19.39
2022-10-05T00:46:31.865Z,19.32
2022-10-05T00:47:31.863Z,19.36
2022-10-05T00:48:31.862Z,19.40
2022-10-05T00:49:31.863Z,19.36
2022-10-05T00:50:31.858Z,19.36
2022-10-05T00:51:31.853Z,19.40
2022-10-05T00:52:31.865Z,19.36
2022-10-05T00:53:31.857Z,19.37
2022-10-05T00:54:31.871Z,19.36
2022-10-05T00:55:31.844Z,19.41
2022-10-05T00:56:31.845Z,19.37
2022-10-05T00:57:31.835Z,19.26
2022-10-05T00:58:31.851Z,19.31
2022-10-05T00:59:31.830Z,19.29
2022-10-05T01:00:31.841Z,19.32
2022-10-05T01:01:31.961Z,19.28
2022-10-05T01:02:36.547Z,19.28
2022-10-05T01:03:31.826Z,19.29
2022-10-05T01:04:31.832Z,19.36
2022-10-05T01:05:31.840Z,19.26
2022-10-05T01:06:31.820Z,19.26
2022-10-05T01:07:31.820Z,19.26
2022-10-05T01:08:31.817Z,19.31
2022-10-05T01:09:31.812Z,19.28
2022-10-05T01:10:31.807Z,19.26
2022-10-05T01:11:31.804Z,19.36
2022-10-05T01:12:31.803Z,19.25
2022-10-05T01:13:31.795Z,19.32
2022-10-05T01:14:31.825Z,19.31
2022-10-05T01:15:31.798Z,19.26
2022-10-05T01:16:31.893Z,19.36
2022-10-05T01:17:31.800Z,19.25
2022-10-05T01:18:31.795Z,19.26
2022-10-05T01:19:31.789Z,19.32
2022-10-05T01:20:31.798Z,19.25
2022-10-05T01:21:31.781Z,19.28
2022-10-05T01:22:31.779Z,19.25
2022-10-05T01:23:31.773Z,19.25
2022-10-05T01:24:31.787Z,19.29
2022-10-05T01:25:31.785Z,19.29
2022-10-05T01:26:31.775Z,19.26
2022-10-05T01:27:31.776Z,19.28
2022-10-05T01:28:31.889Z,19.25
2022-10-05T01:29:31.771Z,19.26
2022-10-05T01:30:31.809Z,19.23
2022-10-05T01:31:31.801Z,19.25
2022-10-05T01:32:31.766Z,19.28
2022-10-05T01:33:31.749Z,19.28
2022-10-05T01:34:31.761Z,19.26
2022-10-05T01:35:31.751Z,19.25
2022-10-05T01:36:31.795Z,19.29
2022-10-05T01:37:31.750Z,19.25
2022-10-05T01:38:31.751Z,19.28
2022-10-05T01:39:31.745Z,19.21
2022-10-05T01:40:31.749Z,19.22
2022-10-05T01:41:31.749Z,19.22
2022-10-05T01:42:31.734Z,19.26
2022-10-05T01:43:31.745Z,19.25
2022-10-05T01:44:31.726Z,19.26
2022-10-05T01:45:31.770Z,19.22
2022-10-05T01:46:31.744Z,19.21
2022-10-05T01:47:31.718Z,19.26
2022-10-05T01:48:31.725Z,19.22
2022-10-05T01:49:31.732Z,19.26
2022-10-05T01:50:31.724Z,19.25
2022-10-05T01:51:31.714Z,19.26
2022-10-05T01:52:31.716Z,19.31
2022-10-05T01:53:31.717Z,19.22
2022-10-05T01:54:31.722Z,19.26
2022-10-05T01:55:31.701Z,19.32
2022-10-05T01:56:31.700Z,19.23
2022-10-05T01:57:31.709Z,19.31
2022-10-05T01:58:31.705Z,19.29
2022-10-05T01:59:31.694Z,19.22
2022-10-05T02:00:31.700Z,19.22
2022-10-05T02:01:31.732Z,19.28
2022-10-05T02:02:31.843Z,19.28
2022-10-05T02:03:31.690Z,19.25
2022-10-05T02:05:00.559Z,19.25
2022-10-05T02:05:31.691Z,19.25
2022-10-05T02:06:31.696Z,19.23
2022-10-05T02:07:31.679Z,19.22
2022-10-05T02:08:31.679Z,19.25
2022-10-05T02:09:31.669Z,19.23
2022-10-05T02:10:31.674Z,19.25
2022-10-05T02:11:31.672Z,19.25
2022-10-05T02:12:31.673Z,19.22
2022-10-05T02:13:31.666Z,19.22
2022-10-05T02:14:31.655Z,19.22
2022-10-05T02:15:31.725Z,19.21
2022-10-05T02:16:31.659Z,19.21
2022-10-05T02:17:31.660Z,19.16
2022-10-05T02:18:31.679Z,19.16
2022-10-05T02:19:31.654Z,19.28
2022-10-05T02:20:31.642Z,19.22
2022-10-05T02:21:31.652Z,19.29
2022-10-05T02:22:31.647Z,19.28
2022-10-05T02:23:31.634Z,19.28
2022-10-05T02:24:31.635Z,19.26
2022-10-05T02:25:31.627Z,19.25
2022-10-05T02:26:31.635Z,19.23
2022-10-05T02:27:31.627Z,19.22
2022-10-05T02:28:31.710Z,19.25
2022-10-05T02:29:31.633Z,19.22
2022-10-05T02:30:31.632Z,19.28
2022-10-05T02:31:31.739Z,19.21
2022-10-05T02:32:31.622Z,19.18
2022-10-05T02:33:31.613Z,19.23
2022-10-05T02:34:31.632Z,19.26
2022-10-05T02:35:31.624Z,19.23
2022-10-05T02:36:31.607Z,19.13
2022-10-05T02:37:31.609Z,19.16
2022-10-05T02:38:31.607Z,19.26
2022-10-05T02:39:31.611Z,19.19
2022-10-05T02:40:31.612Z,19.13
2022-10-05T02:41:31.597Z,19.26
2022-10-05T02:42:31.611Z,19.22
2022-10-05T02:43:31.587Z,19.19
2022-10-05T02:44:31.587Z,19.19
2022-10-05T02:45:31.663Z,19.16
2022-10-05T02:46:31.590Z,19.22
2022-10-05T02:47:31.576Z,19.16
2022-10-05T02:48:31.581Z,19.23
2022-10-05T02:49:31.579Z,19.21
2022-10-05T02:50:31.596Z,19.23
2022-10-05T02:51:31.570Z,19.16
2022-10-05T02:52:31.582Z,19.22
2022-10-05T02:53:31.562Z,19.22
2022-10-05T02:54:31.560Z,19.22
2022-10-05T02:55:31.566Z,19.22
2022-10-05T02:56:31.567Z,19.22
2022-10-05T02:57:31.554Z,19.14
2022-10-05T02:58:31.552Z,19.16
2022-10-05T02:59:31.554Z,19.22
2022-10-05T03:00:31.551Z,19.16
2022-10-05T03:01:31.666Z,19.22
2022-10-05T03:02:31.581Z,19.13
2022-10-05T03:03:31.550Z,19.16
2022-10-05T03:04:31.538Z,19.14
2022-10-05T03:05:31.535Z,19.11
2022-10-05T03:06:31.559Z,19.18
2022-10-05T03:07:31.540Z,19.07
2022-10-05T03:08:31.537Z,19.11
2022-10-05T03:09:31.536Z,19.10
2022-10-05T03:10:31.527Z,19.16
2022-10-05T03:11:31.535Z,19.11
2022-10-05T03:12:31.526Z,19.11
2022-10-05T03:13:31.518Z,19.04
2022-10-05T03:14:31.526Z,19.11
2022-10-05T03:15:31.517Z,19.10
2022-10-05T03:16:31.662Z,19.11
2022-10-05T03:17:31.509Z,19.11
2022-10-05T03:18:31.502Z,19.14
2022-10-05T03:19:31.528Z,19.11
2022-10-05T03:20:31.503Z,19.13
2022-10-05T03:21:31.510Z,19.14
2022-10-05T03:22:31.543Z,19.11
2022-10-05T03:23:31.500Z,19.11
2022-10-05T03:24:31.496Z,19.11
2022-10-05T03:25:31.492Z,19.10
2022-10-05T03:26:31.483Z,19.10
2022-10-05T03:27:31.492Z,19.11
2022-10-05T03:28:31.514Z,19.10
2022-10-05T03:29:31.481Z,19.08
2022-10-05T03:30:31.503Z,19.06
2022-10-05T03:31:31.604Z,19.11
2022-10-05T03:32:31.470Z,19.10
2022-10-05T03:33:31.473Z,19.10
2022-10-05T03:34:31.472Z,19.08
2022-10-05T03:35:31.476Z,19.08
2022-10-05T03:36:31.475Z,19.14
2022-10-05T03:37:31.460Z,19.21
2022-10-05T03:38:31.474Z,19.08
2022-10-05T03:39:31.463Z,19.08
2022-10-05T03:40:31.466Z,19.06
2022-10-05T03:41:31.470Z,19.08
2022-10-05T03:42:31.471Z,19.16
2022-10-05T03:43:31.454Z,19.14
2022-10-05T03:44:31.442Z,19.08
2022-10-05T03:45:31.450Z,19.10
2022-10-05T03:46:31.508Z,19.13
2022-10-05T03:47:31.442Z,19.08
2022-10-05T03:48:31.454Z,19.04
2022-10-05T03:49:31.429Z,19.07
2022-10-05T03:50:31.437Z,19.07
2022-10-05T03:51:31.434Z,19.04
2022-10-05T03:52:31.441Z,19.02
2022-10-05T03:53:31.428Z,19.07
2022-10-05T03:54:31.433Z,19.07
2022-10-05T03:55:31.428Z,19.06
2022-10-05T03:56:31.412Z,19.06
2022-10-05T03:57:31.416Z,19.04
2022-10-05T03:58:31.407Z,19.10
2022-10-05T03:59:32.749Z,19.02
2022-10-05T04:00:31.408Z,19.02
2022-10-05T04:01:31.451Z,19.02
2022-10-05T04:02:31.467Z,19.02
2022-10-05T04:03:31.403Z,19.04
2022-10-05T04:04:31.402Z,19.10
2022-10-05T04:05:31.410Z,19.02
2022-10-05T04:06:31.397Z,19.06
2022-10-05T04:07:31.389Z,19.11
2022-10-05T04:08:31.389Z,19.00
2022-10-05T04:09:31.392Z,19.10
2022-10-05T04:10:31.494Z,19.07
2022-10-05T04:11:31.403Z,19.06
2022-10-05T04:12:31.372Z,19.06
2022-10-05T04:13:31.385Z,19.06
2022-10-05T04:14:31.378Z,19.08
2022-10-05T04:15:31.484Z,19.00
2022-10-05T04:16:31.365Z,19.07
2022-10-05T04:17:31.379Z,19.02
2022-10-05T04:18:31.426Z,19.04
2022-10-05T04:19:31.410Z,19.04
2022-10-05T04:20:31.368Z,18.99
2022-10-05T04:21:31.352Z,19.10
2022-10-05T04:22:31.355Z,18.98
2022-10-05T04:23:31.357Z,19.07
2022-10-05T04:24:31.348Z,18.99
2022-10-05T04:25:31.349Z,19.06
2022-10-05T04:26:31.369Z,18.99
2022-10-05T04:27:31.348Z,19.07
2022-10-05T04:28:32.489Z,19.00
2022-10-05T04:29:31.336Z,18.95
2022-10-05T04:30:31.331Z,19.02
2022-10-05T04:31:31.392Z,19.07
2022-10-05T04:32:31.345Z,18.99
2022-10-05T04:33:31.322Z,18.99
2022-10-05T04:34:31.337Z,19.06
2022-10-05T04:35:31.329Z,19.04
2022-10-05T04:36:31.319Z,18.94
2022-10-05T04:37:31.316Z,18.98
2022-10-05T04:38:31.322Z,19.08
2022-10-05T04:39:31.309Z,19.07
2022-10-05T04:40:31.315Z,19.07
2022-10-05T04:41:31.324Z,18.99
2022-10-05T04:42:31.329Z,18.98
2022-10-05T04:43:31.310Z,19.02
2022-10-05T04:44:31.303Z,19.08
2022-10-05T04:45:31.308Z,18.98
2022-10-05T04:46:31.365Z,19.07
2022-10-05T04:47:31.299Z,18.98
2022-10-05T04:48:31.285Z,18.98
2022-10-05T04:49:31.288Z,19.08
2022-10-05T04:50:31.287Z,19.00
2022-10-05T04:51:31.293Z,18.99
2022-10-05T04:52:31.279Z,19.07
2022-10-05T04:53:31.292Z,18.95
2022-10-05T04:54:31.280Z,19.00
2022-10-05T04:55:31.278Z,19.08
2022-10-05T04:56:31.275Z,18.95
2022-10-05T04:57:31.269Z,19.02
2022-10-05T04:58:31.282Z,19.04
2022-10-05T04:59:31.262Z,19.08
2022-10-05T05:00:31.331Z,19.07
2022-10-05T05:01:31.254Z,19.04
2022-10-05T05:02:31.261Z,18.95
2022-10-05T05:03:31.302Z,19.04
2022-10-05T05:04:31.251Z,19.02
2022-10-05T05:05:31.255Z,18.99
2022-10-05T05:06:31.250Z,19.00
2022-10-05T05:07:31.243Z,18.99
2022-10-05T05:08:31.244Z,18.98
2022-10-05T05:09:31.244Z,18.98
2022-10-05T05:10:31.239Z,18.98
2022-10-05T05:11:31.233Z,19.04
2022-10-05T05:12:31.231Z,18.99
2022-10-05T05:13:31.225Z,19.00
2022-10-05T05:14:31.246Z,19.04
2022-10-05T05:15:31.234Z,18.95
2022-10-05T05:16:31.279Z,19.00
2022-10-05T05:17:31.225Z,19.04
2022-10-05T05:18:31.216Z,18.95
2022-10-05T05:19:31.210Z,19.02
2022-10-05T05:20:31.219Z,18.95
2022-10-05T05:21:31.208Z,19.02
2022-10-05T05:22:31.217Z,18.94
2022-10-05T05:23:31.205Z,19.04
2022-10-05T05:24:31.252Z,19.02
2022-10-05T05:25:31.198Z,19.07
2022-10-05T05:26:33.541Z,19.04
2022-10-05T05:27:31.244Z,19.07
2022-10-05T05:28:31.245Z,19.00
2022-10-05T05:29:31.190Z,19.07
2022-10-05T05:30:31.212Z,19.07
2022-10-05T05:31:31.256Z,19.04
2022-10-05T05:32:31.187Z,19.00
2022-10-05T05:33:31.197Z,19.00
2022-10-05T05:34:31.181Z,19.02
2022-10-05T05:35:31.179Z,19.00
2022-10-05T05:36:31.188Z,19.04
2022-10-05T05:37:31.172Z,18.95
2022-10-05T05:38:31.171Z,19.08
2022-10-05T05:39:31.173Z,19.10
2022-10-05T05:40:31.166Z,19.07
2022-10-05T05:41:31.159Z,19.10
2022-10-05T05:42:31.160Z,19.06
2022-10-05T05:43:31.157Z,19.07
2022-10-05T05:44:34.171Z,19.10
2022-10-05T05:45:31.159Z,19.04
2022-10-05T05:47:01.912Z,19.07
2022-10-05T05:47:31.266Z,19.06
2022-10-05T05:48:31.164Z,19.10
2022-10-05T05:49:31.175Z,19.11
2022-10-05T05:50:31.148Z,19.18
2022-10-05T05:51:31.155Z,19.08
2022-10-05T05:52:31.150Z,19.16
2022-10-05T05:53:31.137Z,19.16
2022-10-05T05:54:31.147Z,19.18
2022-10-05T05:55:31.191Z,19.21
2022-10-05T05:56:31.154Z,19.22
2022-10-05T05:57:31.133Z,19.22
2022-10-05T05:58:31.138Z,19.21
2022-10-05T05:59:31.130Z,19.23
2022-10-05T06:00:31.125Z,19.22
2022-10-05T06:01:33.592Z,19.23
2022-10-05T06:02:31.326Z,19.28
2022-10-05T06:03:31.120Z,19.22
2022-10-05T06:04:31.119Z,19.28
2022-10-05T06:05:31.113Z,19.23
2022-10-05T06:06:31.109Z,19.22
2022-10-05T06:07:31.113Z,19.22
2022-10-05T06:08:31.109Z,19.25
2022-10-05T06:09:31.104Z,19.26
2022-10-05T06:10:31.102Z,19.22
2022-10-05T06:11:31.106Z,19.22
2022-10-05T06:12:31.106Z,19.22
2022-10-05T06:13:31.088Z,19.25
2022-10-05T06:14:31.109Z,19.26
2022-10-05T06:15:31.083Z,19.25
2022-10-05T06:16:31.187Z,19.28
2022-10-05T06:17:31.093Z,19.22
2022-10-05T06:18:31.112Z,19.19
2022-10-05T06:19:31.084Z,19.28
2022-10-05T06:20:31.106Z,19.21
2022-10-05T06:21:31.073Z,19.23
2022-10-05T06:22:31.075Z,19.10
2022-10-05T06:23:31.079Z,19.23
2022-10-05T06:24:31.069Z,19.25
2022-10-05T06:25:31.066Z,19.16
2022-10-05T06:26:31.067Z,19.21
2022-10-05T06:27:31.058Z,19.21
2022-10-05T06:28:31.140Z,19.21
2022-10-05T06:29:31.064Z,19.16
2022-10-05T06:30:31.057Z,19.23
2022-10-05T06:31:31.125Z,19.23
2022-10-05T06:32:31.050Z,19.21
2022-10-05T06:33:31.043Z,19.22
2022-10-05T06:34:31.080Z,19.10
2022-10-05T06:35:31.050Z,19.19
2022-10-05T06:36:31.041Z,19.19
2022-10-05T06:37:31.047Z,19.18
2022-10-05T06:38:31.049Z,19.16
2022-10-05T06:39:31.033Z,19.21
2022-10-05T06:40:31.038Z,19.13
2022-10-05T06:41:31.039Z,19.23
2022-10-05T06:42:31.035Z,19.23
2022-10-05T06:43:31.037Z,19.14
2022-10-05T06:44:31.030Z,19.21
2022-10-05T06:45:31.077Z,19.21
2022-10-05T06:46:31.028Z,19.25
2022-10-05T06:47:31.013Z,19.14
2022-10-05T06:48:31.017Z,19.21
2022-10-05T06:49:31.034Z,19.13
2022-10-05T06:50:31.100Z,19.21
2022-10-05T06:51:31.013Z,19.14
2022-10-05T06:52:31.005Z,19.16
2022-10-05T06:53:30.999Z,19.13
2022-10-05T06:54:31.006Z,19.23
2022-10-05T06:55:31.014Z,19.19
2022-10-05T06:56:31.017Z,19.18
2022-10-05T06:57:30.997Z,19.25
2022-10-05T06:58:30.997Z,19.16
2022-10-05T06:59:30.990Z,19.21
2022-10-05T07:00:30.985Z,19.25
2022-10-05T07:01:31.045Z,19.21
2022-10-05T07:02:31.030Z,19.21
2022-10-05T07:03:30.986Z,19.21
2022-10-05T07:04:35.981Z,19.25
2022-10-05T07:05:31.002Z,19.22
2022-10-05T07:06:30.998Z,19.25
2022-10-05T07:07:30.979Z,19.23
2022-10-05T07:08:30.982Z,19.23
2022-10-05T07:09:30.970Z,19.19
2022-10-05T07:10:30.972Z,19.18
2022-10-05T07:11:30.960Z,19.22
2022-10-05T07:12:30.967Z,19.23
2022-10-05T07:13:30.961Z,19.22
2022-10-05T07:14:30.969Z,19.26
2022-10-05T07:15:30.963Z,19.25
2022-10-05T07:16:31.007Z,19.18
2022-10-05T07:17:30.946Z,19.14
2022-10-05T07:18:30.954Z,19.16
2022-10-05T07:19:30.954Z,19.21
2022-10-05T07:20:30.968Z,19.19
2022-10-05T07:21:30.946Z,19.16
2022-10-05T07:22:33.427Z,19.16
2022-10-05T07:23:30.942Z,19.26
2022-10-05T07:24:30.956Z,19.18
2022-10-05T07:25:30.949Z,19.19
2022-10-05T07:26:30.933Z,19.21
2022-10-05T07:27:30.933Z,19.18
2022-10-05T07:28:30.981Z,19.23
2022-10-05T07:29:30.923Z,19.19
2022-10-05T07:30:31.007Z,19.22
2022-10-05T07:31:30.936Z,19.18
2022-10-05T07:32:30.921Z,19.18
2022-10-05T07:33:30.914Z,19.23
2022-10-05T07:34:30.936Z,19.14
2022-10-05T07:35:30.913Z,19.18
2022-10-05T07:36:30.914Z,19.28
2022-10-05T07:37:30.914Z,19.28
2022-10-05T07:38:30.921Z,19.28
2022-10-05T07:39:55.439Z,19.29
2022-10-05T07:40:30.911Z,19.22
2022-10-05T07:41:30.899Z,19.25
2022-10-05T07:42:30.900Z,19.25
2022-10-05T07:43:40.316Z,19.26
2022-10-05T07:44:30.905Z,19.16
2022-10-05T07:45:31.009Z,19.16
2022-10-05T07:46:30.895Z,19.21
2022-10-05T07:47:30.897Z,19.23
2022-10-05T07:48:30.893Z,19.25
2022-10-05T07:49:30.890Z,19.25
2022-10-05T07:50:30.888Z,19.14
2022-10-05T07:51:30.885Z,19.26
2022-10-05T07:52:34.514Z,19.19
2022-10-05T07:53:30.877Z,19.19
2022-10-05T07:54:30.909Z,19.18
2022-10-05T07:55:30.880Z,19.25
2022-10-05T07:56:30.868Z,19.25
2022-10-05T07:57:30.870Z,19.23
2022-10-05T07:58:30.871Z,19.25
2022-10-05T07:59:30.875Z,19.25
2022-10-05T08:00:30.861Z,19.26
2022-10-05T08:01:30.882Z,19.23
2022-10-05T08:02:30.983Z,19.22
2022-10-05T08:03:30.858Z,19.19
2022-10-05T08:04:30.856Z,19.25
2022-10-05T08:05:30.852Z,19.23
2022-10-05T08:06:30.851Z,19.26
2022-10-05T08:07:30.853Z,19.16
2022-10-05T08:08:30.855Z,19.21
2022-10-05T08:09:30.848Z,19.25
2022-10-05T08:10:30.858Z,19.25
2022-10-05T08:11:30.859Z,19.25
2022-10-05T08:12:30.939Z,19.19
2022-10-05T08:13:30.830Z,19.23
2022-10-05T08:14:30.839Z,19.21
2022-10-05T08:15:30.829Z,19.23
2022-10-05T08:16:30.827Z,19.28
2022-10-05T08:17:30.841Z,19.25
2022-10-05T08:18:30.826Z,19.23
2022-10-05T08:19:30.822Z,19.22
2022-10-05T08:20:30.828Z,19.29
2022-10-05T08:21:30.816Z,19.29
2022-10-05T08:22:30.816Z,19.14
2022-10-05T08:23:30.810Z,19.21
2022-10-05T08:24:30.813Z,19.21
2022-10-05T08:25:30.822Z,19.22
2022-10-05T08:26:30.840Z,19.14
2022-10-05T08:27:30.808Z,19.25
2022-10-05T08:28:30.904Z,19.18
2022-10-05T08:29:30.806Z,19.23
2022-10-05T08:30:30.806Z,19.16
2022-10-05T08:31:30.866Z,19.25
2022-10-05T08:32:30.803Z,19.26
2022-10-05T08:33:30.805Z,19.25
2022-10-05T08:34:30.793Z,19.21
2022-10-05T08:35:30.790Z,19.23
2022-10-05T08:36:30.784Z,19.21
2022-10-05T08:37:30.777Z,19.22
2022-10-05T08:38:30.780Z,19.23
2022-10-05T08:39:30.783Z,19.29
2022-10-05T08:40:30.794Z,19.22
2022-10-05T08:41:30.776Z,19.29
2022-10-05T08:42:30.800Z,19.21
2022-10-05T08:43:35.163Z,19.25
2022-10-05T08:44:30.772Z,19.18
2022-10-05T08:45:30.771Z,19.25
2022-10-05T08:46:30.797Z,19.26
2022-10-05T08:47:30.759Z,19.21
2022-10-05T08:48:30.758Z,19.21
2022-10-05T08:49:35.023Z,19.14
2022-10-05T08:50:30.777Z,19.28
2022-10-05T08:51:30.764Z,19.22
2022-10-05T08:52:30.757Z,19.26
2022-10-05T08:53:30.749Z,19.16
2022-10-05T08:54:30.754Z,19.25
2022-10-05T08:55:30.748Z,19.21
2022-10-05T08:56:30.752Z,19.22
2022-10-05T08:57:30.737Z,19.29
2022-10-05T08:58:30.806Z,19.23
2022-10-05T08:59:30.742Z,19.28
2022-10-05T09:00:30.741Z,19.23
2022-10-05T09:01:30.841Z,19.22
2022-10-05T09:02:30.797Z,19.18
2022-10-05T09:03:34.291Z,19.21
2022-10-05T09:04:30.730Z,19.21
2022-10-05T09:05:30.722Z,19.28
2022-10-05T09:06:30.723Z,19.26
2022-10-05T09:07:30.729Z,19.22
2022-10-05T09:08:30.727Z,19.25
2022-10-05T09:09:30.725Z,19.22
2022-10-05T09:10:30.729Z,19.22
2022-10-05T09:11:30.713Z,19.26
2022-10-05T09:12:30.716Z,19.21
2022-10-05T09:13:30.728Z,19.22
2022-10-05T09:14:30.778Z,19.25
2022-10-05T09:15:30.703Z,19.29
2022-10-05T09:16:30.705Z,19.23
2022-10-05T09:17:30.694Z,19.23
2022-10-05T09:18:30.705Z,19.25
2022-10-05T09:19:30.700Z,19.23
2022-10-05T09:20:30.697Z,19.21
2022-10-05T09:21:30.709Z,19.21
2022-10-05T09:22:30.698Z,19.29
2022-10-05T09:23:30.688Z,19.32
2022-10-05T09:24:30.701Z,19.23
2022-10-05T09:25:30.693Z,19.32
2022-10-05T09:26:30.692Z,19.23
2022-10-05T09:27:30.681Z,19.29
2022-10-05T09:28:30.744Z,19.25
2022-10-05T09:29:30.680Z,19.28
2022-10-05T09:30:30.726Z,19.29
2022-10-05T09:31:30.731Z,19.28
2022-10-05T09:32:30.676Z,19.32
2022-10-05T09:33:30.661Z,19.19
2022-10-05T09:34:30.671Z,19.26
2022-10-05T09:35:30.667Z,19.26
2022-10-05T09:36:30.672Z,19.22
2022-10-05T09:37:30.654Z,19.29
2022-10-05T09:38:30.662Z,19.32
2022-10-05T09:39:30.650Z,19.23
2022-10-05T09:40:30.653Z,19.32
2022-10-05T09:41:30.661Z,19.22
2022-10-05T09:42:30.659Z,19.25
2022-10-05T09:43:30.643Z,19.22
2022-10-05T09:44:30.650Z,19.28
2022-10-05T09:45:30.642Z,19.29
2022-10-05T09:46:30.734Z,19.23
2022-10-05T09:47:30.641Z,19.32
2022-10-05T09:48:30.642Z,19.31
2022-10-05T09:49:30.651Z,19.31
2022-10-05T09:50:30.634Z,19.26
2022-10-05T09:51:30.628Z,19.31
2022-10-05T09:52:30.631Z,19.26
2022-10-05T09:53:30.625Z,19.22
2022-10-05T09:54:30.632Z,19.26
2022-10-05T09:55:30.626Z,19.29
2022-10-05T09:56:30.635Z,19.26
2022-10-05T09:57:30.647Z,19.33
2022-10-05T09:58:30.619Z,19.23
2022-10-05T09:59:30.632Z,19.23
2022-10-05T10:00:30.611Z,19.31
2022-10-05T10:01:45.026Z,19.25
2022-10-05T10:02:30.827Z,19.28
2022-10-05T10:03:30.660Z,19.25
2022-10-05T10:04:30.608Z,19.26
2022-10-05T10:05:30.603Z,19.23
2022-10-05T10:06:30.615Z,19.25
2022-10-05T10:07:30.621Z,19.23
2022-10-05T10:08:30.592Z,19.25
2022-10-05T10:09:33.015Z,19.25
2022-10-05T10:10:30.600Z,19.28
2022-10-05T10:11:30.598Z,19.23
2022-10-05T10:12:30.589Z,19.22
2022-10-05T10:13:30.647Z,19.28
2022-10-05T10:14:30.586Z,19.26
2022-10-05T10:15:30.648Z,19.25
2022-10-05T10:16:30.584Z,19.25
2022-10-05T10:17:30.580Z,19.29
2022-10-05T10:18:30.604Z,19.33
2022-10-05T10:19:30.570Z,19.23
2022-10-05T10:20:30.580Z,19.32
2022-10-05T10:21:30.573Z,19.29
2022-10-05T10:22:30.575Z,19.32
2022-10-05T10:23:30.584Z,19.29
2022-10-05T10:24:30.586Z,19.26
2022-10-05T10:25:30.563Z,19.28
2022-10-05T10:26:30.562Z,19.28
2022-10-05T10:27:30.560Z,19.25
2022-10-05T10:28:30.621Z,19.26
2022-10-05T10:29:30.557Z,19.33
2022-10-05T10:30:33.133Z,19.28
2022-10-05T10:31:30.596Z,19.28
2022-10-05T10:32:30.550Z,19.31
2022-10-05T10:33:30.552Z,19.29
2022-10-05T10:34:30.568Z,19.32
2022-10-05T10:36:30.546Z,19.32
2022-10-05T10:37:30.538Z,19.40
2022-10-05T10:38:30.530Z,19.37
2022-10-05T10:39:30.534Z,19.26
2022-10-05T10:40:30.537Z,19.39
2022-10-05T10:41:30.523Z,19.40
2022-10-05T10:42:30.548Z,19.32
2022-10-05T10:43:30.522Z,19.37
2022-10-05T10:44:30.527Z,19.33
2022-10-05T10:45:30.538Z,19.32
2022-10-05T10:46:30.551Z,19.40
2022-10-05T10:47:30.519Z,19.36
2022-10-05T10:48:30.527Z,19.32
2022-10-05T10:49:30.523Z,19.33
2022-10-05T10:50:30.543Z,19.31
2022-10-05T10:51:30.505Z,19.32
2022-10-05T10:52:30.525Z,19.32
2022-10-05T10:53:30.509Z,19.33
2022-10-05T10:54:30.514Z,19.37
2022-10-05T10:55:30.497Z,19.28
2022-10-05T10:56:30.495Z,19.37
2022-10-05T10:57:30.494Z,19.32
2022-10-05T10:59:31.697Z,19.32
2022-10-05T11:00:30.507Z,19.40
2022-10-05T11:01:30.553Z,19.40
2022-10-05T11:02:30.586Z,19.41
2022-10-05T11:03:30.489Z,19.31
2022-10-05T11:04:30.487Z,19.41
2022-10-05T11:05:30.479Z,19.37
2022-10-05T11:06:30.519Z,19.32
2022-10-05T11:07:30.471Z,19.32
2022-10-05T11:08:30.508Z,19.36
2022-10-05T11:09:30.470Z,19.33
2022-10-05T11:10:30.478Z,19.36
2022-10-05T11:11:30.487Z,19.36
2022-10-05T11:12:34.433Z,19.37
2022-10-05T11:13:30.466Z,19.39
2022-10-05T11:14:30.508Z,19.33
2022-10-05T11:15:30.465Z,19.33
2022-10-05T11:16:30.458Z,19.33
2022-10-05T11:17:30.469Z,19.31
2022-10-05T11:18:30.468Z,19.37
2022-10-05T11:19:40.031Z,19.39
2022-10-05T11:20:30.454Z,19.36
2022-10-05T11:21:30.450Z,19.40
2022-10-05T11:22:30.468Z,19.39
2022-10-05T11:23:33.174Z,19.40
2022-10-05T11:24:30.439Z,19.32
2022-10-05T11:25:30.442Z,19.39
2022-10-05T11:26:30.445Z,19.37
2022-10-05T11:27:30.438Z,19.36
2022-10-05T11:28:30.520Z,19.36
2022-10-05T11:29:30.432Z,19.33
2022-10-05T11:30:30.432Z,19.39
2022-10-05T11:31:30.519Z,19.48
2022-10-05T11:32:30.422Z,19.37
2022-10-05T11:33:30.427Z,19.37
2022-10-05T11:34:30.423Z,19.41
2022-10-05T11:35:30.424Z,19.32
2022-10-05T11:36:30.413Z,19.41
2022-10-05T11:37:30.423Z,19.36
2022-10-05T11:38:30.450Z,19.47
2022-10-05T11:39:30.415Z,19.36
2022-10-05T11:40:30.411Z,19.39
2022-10-05T11:41:30.401Z,19.40
2022-10-05T11:42:30.408Z,19.44
2022-10-05T11:43:30.402Z,19.41
2022-10-05T11:44:30.407Z,19.44
2022-10-05T11:45:30.403Z,19.40
2022-10-05T11:46:30.447Z,19.44
2022-10-05T11:47:30.400Z,19.41
2022-10-05T11:48:30.391Z,19.43
2022-10-05T11:49:30.391Z,19.39
2022-10-05T11:50:30.383Z,19.46
2022-10-05T11:51:30.397Z,19.46
2022-10-05T11:52:30.394Z,19.48
2022-10-05T11:53:30.378Z,19.47
2022-10-05T11:54:32.499Z,19.46
2022-10-05T11:55:30.382Z,19.46
2022-10-05T11:57:30.372Z,19.41
2022-10-05T11:58:30.367Z,19.36
2022-10-05T11:59:30.382Z,19.39
2022-10-05T12:00:30.375Z,19.37
2022-10-05T12:01:30.385Z,19.39
2022-10-05T12:02:30.402Z,19.46
2022-10-05T12:03:30.490Z,19.39
2022-10-05T12:04:30.355Z,19.47
2022-10-05T12:05:30.359Z,19.37
2022-10-05T12:06:30.359Z,19.40
2022-10-05T12:07:30.356Z,19.39
2022-10-05T12:08:30.358Z,19.46
2022-10-05T12:09:30.346Z,19.46
2022-10-05T12:10:30.377Z,19.50
2022-10-05T12:11:30.350Z,19.44
2022-10-05T12:12:30.345Z,19.43
2022-10-05T12:13:30.353Z,19.48
2022-10-05T12:14:30.343Z,19.50
2022-10-05T12:15:30.439Z,19.43
2022-10-05T12:16:30.332Z,19.44
2022-10-05T12:17:30.339Z,19.50
2022-10-05T12:18:30.333Z,19.47
2022-10-05T12:19:30.324Z,19.41
2022-10-05T12:20:30.339Z,19.39
2022-10-05T12:21:30.324Z,19.44
2022-10-05T12:22:30.326Z,19.47
2022-10-05T12:23:30.342Z,19.51
2022-10-05T12:24:30.328Z,19.44
2022-10-05T12:25:30.328Z,19.43
2022-10-05T12:26:30.340Z,19.44
2022-10-05T12:27:30.318Z,19.46
2022-10-05T12:28:30.433Z,19.41
2022-10-05T12:29:30.321Z,19.41
2022-10-05T12:30:30.310Z,19.44
2022-10-05T12:31:30.370Z,19.48
2022-10-05T12:32:30.297Z,19.47
2022-10-05T12:33:30.308Z,19.44
2022-10-05T12:34:30.305Z,19.41
2022-10-05T12:35:47.381Z,19.50
2022-10-05T12:36:46.277Z,19.48
2022-10-05T12:37:30.296Z,19.51
2022-10-05T12:38:30.294Z,19.41
2022-10-05T12:39:30.292Z,19.44
2022-10-05T12:40:30.319Z,19.44
2022-10-05T12:41:30.364Z,19.51
2022-10-05T12:42:30.309Z,19.43
2022-10-05T12:43:30.288Z,19.41
2022-10-05T12:44:30.286Z,19.48
2022-10-05T12:45:30.352Z,19.43
2022-10-05T12:46:30.277Z,19.56
2022-10-05T12:47:30.280Z,19.56
2022-10-05T12:48:30.269Z,19.47
2022-10-05T12:49:30.277Z,19.46
2022-10-05T12:50:30.269Z,19.55
2022-10-05T12:51:30.270Z,19.47
2022-10-05T12:52:30.260Z,19.46
2022-10-05T12:53:30.264Z,19.50
2022-10-05T12:54:30.260Z,19.51
2022-10-05T12:55:30.263Z,19.50